Wasco, Illinois
Current Conditions -  °F | °C
As of 12:52 AM on Thursday 27 Nov 2014 (Local Time) from KDPA Reporting Station
Overcast Overcast  
Wind Chill: 16°   Ceiling: 3700
Heat Index: 25°   Visibility: 7mi
Dew Point: 19°   Wind: 8mph
Humidity: 78%   Direction: 320°NW
Pressure: 30.2"   Gusts: NA
Location:  41.94°N, 88.4°W
Report Text: KDPA 270652Z 32007KT 7SM OVC037 M04/M07 A3020 RMK AO2 SLP236 T10391072
Loading
Personal Weather Stations






























Interactive Weather Map New forecast layout! Learn more

10-Day Weather Forecast

Advertisements
Track Severe Weather on mobile